createdAt,value
2018-09-25T00:01:20.399Z,5.97
2018-09-25T00:06:23.564Z,5.99
2018-09-25T00:11:26.732Z,5.78
2018-09-25T00:16:30.005Z,5.83
2018-09-25T00:21:33.238Z,5.76
2018-09-25T00:26:36.388Z,5.67
2018-09-25T00:31:39.611Z,5.74
2018-09-25T00:36:46.045Z,5.76
2018-09-25T00:41:49.291Z,5.86
2018-09-25T00:46:52.542Z,5.83
2018-09-25T00:51:55.874Z,5.69
2018-09-25T00:56:59.575Z,5.63
2018-09-25T01:02:02.789Z,5.49
2018-09-25T01:07:05.973Z,5.57
2018-09-25T01:12:09.158Z,5.46
2018-09-25T01:17:12.441Z,5.47
2018-09-25T01:22:15.810Z,5.54
2018-09-25T01:27:19.043Z,5.54
2018-09-25T01:32:22.428Z,5.54
2018-09-25T01:37:25.552Z,5.49
2018-09-25T01:42:28.745Z,5.42
2018-09-25T01:47:31.880Z,5.36
2018-09-25T01:52:35.045Z,5.32
2018-09-25T01:57:38.219Z,5.45
2018-09-25T02:02:41.368Z,5.44
2018-09-25T02:07:44.756Z,5.28
2018-09-25T02:12:48.020Z,5.39
2018-09-25T02:17:51.236Z,5.29
2018-09-25T02:22:55.479Z,5.23
2018-09-25T02:27:58.735Z,5.15
2018-09-25T02:33:01.916Z,5.27
2018-09-25T02:38:05.229Z,5.33
2018-09-25T02:43:08.420Z,5.30
2018-09-25T02:48:11.645Z,5.03
2018-09-25T02:53:14.960Z,5.09
2018-09-25T02:58:18.244Z,5.05
2018-09-25T03:03:21.486Z,5.00
2018-09-25T03:08:24.733Z,4.98
2018-09-25T03:13:27.970Z,4.85
2018-09-25T03:18:31.172Z,4.79
2018-09-25T03:23:34.357Z,4.76
2018-09-25T03:28:37.542Z,4.72
2018-09-25T03:33:40.908Z,4.87
2018-09-25T03:38:44.254Z,4.94
2018-09-25T03:43:47.693Z,4.86
2018-09-25T03:48:51.030Z,4.89
2018-09-25T03:53:54.331Z,4.83
2018-09-25T03:58:57.575Z,4.68
2018-09-25T04:04:01.177Z,4.73
2018-09-25T04:09:06.496Z,4.60
2018-09-25T04:14:12.871Z,4.63
2018-09-25T04:19:16.219Z,4.79
2018-09-25T04:24:19.516Z,4.64
2018-09-25T04:29:22.793Z,4.67
2018-09-25T04:34:25.980Z,4.69
2018-09-25T04:39:29.147Z,4.79
2018-09-25T04:44:32.326Z,4.80
2018-09-25T04:49:35.485Z,4.62
2018-09-25T04:54:39.322Z,4.70
2018-09-25T04:59:42.590Z,4.59
2018-09-25T05:04:45.907Z,4.49
2018-09-25T05:09:49.396Z,4.58
2018-09-25T05:14:52.692Z,4.71
2018-09-25T05:19:55.891Z,4.63
2018-09-25T05:24:59.195Z,4.66
2018-09-25T05:30:02.485Z,4.70
2018-09-25T05:35:06.041Z,4.73
2018-09-25T05:40:10.071Z,4.76
2018-09-25T05:45:14.237Z,4.82
2018-09-25T05:50:17.548Z,5.07
2018-09-25T05:55:22.404Z,5.24
2018-09-25T06:00:25.598Z,5.40
2018-09-25T06:05:28.988Z,5.60
2018-09-25T06:10:32.163Z,5.69
2018-09-25T06:15:35.487Z,5.83
2018-09-25T06:20:38.614Z,6.03
2018-09-25T06:25:41.753Z,6.21
2018-09-25T06:30:46.531Z,6.49
2018-09-25T06:35:50.008Z,6.66
2018-09-25T06:40:53.499Z,6.77
2018-09-25T06:45:56.672Z,6.85
2018-09-25T06:50:59.838Z,6.97
2018-09-25T06:56:05.125Z,7.10
2018-09-25T07:01:08.759Z,7.26
2018-09-25T07:06:15.274Z,7.33
2018-09-25T07:11:18.549Z,7.61
2018-09-25T07:16:22.041Z,7.74
2018-09-25T07:21:25.249Z,7.89
2018-09-25T07:26:28.442Z,7.96
2018-09-25T07:31:32.385Z,8.22
2018-09-25T07:36:36.265Z,8.31
2018-09-25T07:41:39.450Z,8.45
2018-09-25T07:46:42.741Z,8.60
2018-09-25T07:51:46.047Z,8.66
2018-09-25T07:56:49.301Z,8.91
2018-09-25T08:01:52.632Z,9.03
2018-09-25T08:06:56.406Z,9.10
2018-09-25T08:11:59.673Z,9.51
2018-09-25T08:17:03.182Z,9.79
2018-09-25T08:22:06.352Z,9.85
2018-09-25T08:27:09.513Z,10.00
2018-09-25T08:32:12.862Z,10.08
2018-09-25T08:37:16.166Z,10.36
2018-09-25T08:42:19.455Z,10.30
2018-09-25T08:47:22.747Z,10.36
2018-09-25T08:52:25.948Z,10.42
2018-09-25T08:57:29.113Z,10.72
2018-09-25T09:02:32.473Z,10.74
2018-09-25T09:07:35.630Z,10.90
2018-09-25T09:12:38.873Z,11.18
2018-09-25T09:17:42.061Z,11.52
2018-09-25T09:22:45.516Z,11.49
2018-09-25T09:27:48.824Z,11.80
2018-09-25T09:32:52.225Z,12.02
2018-09-25T09:37:55.428Z,13.24
2018-09-25T09:42:58.576Z,12.65
2018-09-25T09:48:01.745Z,14.53
2018-09-25T09:53:04.957Z,15.81
2018-09-25T09:58:08.134Z,15.69
2018-09-25T10:03:11.355Z,15.10
2018-09-25T10:08:14.609Z,16.01
2018-09-25T10:13:17.927Z,17.01
2018-09-25T10:18:21.395Z,17.82
2018-09-25T10:23:24.597Z,17.23
2018-09-25T10:28:27.741Z,15.91
2018-09-25T10:33:30.961Z,14.89
2018-09-25T10:38:35.420Z,13.89
2018-09-25T10:43:39.452Z,14.49
2018-09-25T10:48:42.708Z,15.38
2018-09-25T10:53:45.971Z,14.07
2018-09-25T10:58:49.226Z,14.43
2018-09-25T11:03:52.470Z,14.40
2018-09-25T11:08:55.629Z,14.54
2018-09-25T11:13:58.791Z,15.90
2018-09-25T11:19:02.248Z,15.14
2018-09-25T11:24:05.955Z,16.80
2018-09-25T11:29:09.402Z,16.19
2018-09-25T11:34:12.819Z,15.01
2018-09-25T11:39:16.083Z,13.54
2018-09-25T11:44:20.182Z,13.24
2018-09-25T11:49:23.676Z,12.91
2018-09-25T11:54:29.045Z,14.71
2018-09-25T11:59:32.285Z,15.82
2018-09-25T12:04:36.592Z,15.60
2018-09-25T12:09:39.750Z,15.74
2018-09-25T12:14:50.146Z,16.37
2018-09-25T12:19:53.390Z,14.77
2018-09-25T12:24:56.491Z,15.55
2018-09-25T12:29:59.669Z,16.01
2018-09-25T12:35:02.899Z,14.52
2018-09-25T12:40:06.270Z,14.85
2018-09-25T12:45:09.607Z,16.56
2018-09-25T12:50:12.809Z,16.98
2018-09-25T12:55:16.380Z,17.16
2018-09-25T13:00:19.670Z,15.75
2018-09-25T13:05:22.930Z,14.60
2018-09-25T13:10:26.676Z,13.61
2018-09-25T13:15:30.412Z,13.49
2018-09-25T13:20:33.572Z,14.86
2018-09-25T13:25:36.778Z,14.31
2018-09-25T13:30:40.001Z,13.87
2018-09-25T13:35:44.260Z,13.62
2018-09-25T13:40:47.511Z,13.37
2018-09-25T13:45:50.673Z,13.08
2018-09-25T13:56:03.405Z,13.41
2018-09-25T14:01:07.666Z,13.67
2018-09-25T14:06:11.190Z,14.70
2018-09-25T14:11:14.717Z,15.08
2018-09-25T14:16:18.243Z,15.62
2018-09-25T14:21:21.679Z,15.28
2018-09-25T14:26:24.915Z,15.32
2018-09-25T14:31:28.191Z,15.52
2018-09-25T14:36:31.402Z,14.84
2018-09-25T14:41:40.340Z,14.44
2018-09-25T14:46:43.692Z,14.79
2018-09-25T14:51:47.081Z,15.31
2018-09-25T14:56:50.354Z,14.97
2018-09-25T15:01:53.600Z,15.31
2018-09-25T15:06:56.943Z,15.46
2018-09-25T15:12:00.164Z,15.65
2018-09-25T15:17:03.381Z,15.45
2018-09-25T15:22:06.870Z,15.66
2018-09-25T15:27:09.858Z,15.26
2018-09-25T15:32:13.622Z,14.77
2018-09-25T15:37:17.054Z,14.61
2018-09-25T15:42:20.652Z,14.58
2018-09-25T15:47:23.915Z,14.67
2018-09-25T15:52:27.083Z,14.16
2018-09-25T15:57:30.304Z,13.93
2018-09-25T16:02:33.632Z,13.60
2018-09-25T16:07:36.931Z,13.57
2018-09-25T16:12:40.205Z,13.42
2018-09-25T16:17:43.865Z,13.21
2018-09-25T16:22:47.291Z,13.09
2018-09-25T16:27:50.728Z,12.80
2018-09-25T16:32:53.965Z,12.62
2018-09-25T16:37:57.307Z,12.40
2018-09-25T16:43:01.382Z,12.01
2018-09-25T16:48:04.637Z,11.44
2018-09-25T16:53:07.825Z,10.97
2018-09-25T16:58:11.050Z,10.44
2018-09-25T17:03:14.410Z,9.91
2018-09-25T17:08:17.747Z,9.50
2018-09-25T17:13:21.097Z,9.13
2018-09-25T17:18:24.409Z,8.79
2018-09-25T17:23:27.648Z,8.48
2018-09-25T17:28:31.031Z,8.54
2018-09-25T17:33:34.246Z,8.35
2018-09-25T17:38:40.383Z,7.97
2018-09-25T17:43:43.978Z,7.57
2018-09-25T17:48:47.615Z,7.34
2018-09-25T17:53:51.010Z,7.00
2018-09-25T17:58:54.806Z,6.80
2018-09-25T18:03:58.089Z,6.77
2018-09-25T18:09:01.314Z,6.49
2018-09-25T18:14:04.639Z,6.37
2018-09-25T18:19:08.060Z,6.17
2018-09-25T18:24:12.116Z,6.11
2018-09-25T18:29:16.153Z,5.84
2018-09-25T18:34:19.619Z,5.60
2018-09-25T18:39:23.149Z,5.43
2018-09-25T18:44:27.009Z,5.29
2018-09-25T18:49:30.336Z,5.37
2018-09-25T18:54:33.532Z,5.29
2018-09-25T18:59:36.820Z,5.25
2018-09-25T19:04:39.978Z,5.24
2018-09-25T19:09:43.928Z,5.29
2018-09-25T19:14:47.329Z,5.27
2018-09-25T19:20:00.358Z,5.26
2018-09-25T19:25:21.980Z,5.25
2018-09-25T19:30:33.662Z,5.10
2018-09-25T19:35:45.972Z,5.03
2018-09-25T19:40:50.127Z,4.91
2018-09-25T19:45:53.537Z,4.80
2018-09-25T19:50:56.858Z,4.62
2018-09-25T19:56:00.148Z,4.47
2018-09-25T20:01:03.499Z,4.42
2018-09-25T20:06:08.845Z,4.30
2018-09-25T20:11:12.638Z,4.21
2018-09-25T20:16:17.286Z,4.11
2018-09-25T20:21:21.710Z,3.93
2018-09-25T20:26:25.141Z,3.81
2018-09-25T20:31:28.621Z,3.83
2018-09-25T20:36:32.164Z,3.76
2018-09-25T20:41:35.575Z,3.61
2018-09-25T20:46:39.498Z,3.48
2018-09-25T20:51:46.549Z,3.35
2018-09-25T20:56:54.254Z,3.39
2018-09-25T21:02:02.378Z,3.21
2018-09-25T21:07:09.680Z,3.10
2018-09-25T21:12:13.280Z,2.94
2018-09-25T21:17:23.333Z,2.87
2018-09-25T21:22:26.493Z,2.79
2018-09-25T21:27:29.686Z,2.71
2018-09-25T21:32:32.884Z,2.68
2018-09-25T21:37:36.177Z,2.64
2018-09-25T21:42:39.414Z,2.48
2018-09-25T21:47:43.320Z,2.43
2018-09-25T21:52:46.690Z,2.37
2018-09-25T21:57:50.291Z,2.35
2018-09-25T22:02:53.480Z,2.27
2018-09-25T22:07:58.939Z,2.31
2018-09-25T22:13:02.735Z,2.21
2018-09-25T22:18:05.946Z,2.13
2018-09-25T22:23:09.119Z,2.04
2018-09-25T22:28:12.374Z,2.00
2018-09-25T22:33:15.760Z,1.97
2018-09-25T22:38:19.182Z,1.88
2018-09-25T22:43:22.472Z,1.90
2018-09-25T22:48:25.727Z,1.88
2018-09-25T22:53:28.857Z,1.84
2018-09-25T22:58:32.057Z,1.84
2018-09-25T23:03:35.220Z,1.77
2018-09-25T23:08:38.689Z,1.70
2018-09-25T23:13:41.908Z,1.71
2018-09-25T23:18:45.375Z,1.71
2018-09-25T23:23:48.770Z,1.73
2018-09-25T23:28:52.158Z,1.76
2018-09-25T23:33:55.416Z,1.78
2018-09-25T23:38:58.601Z,1.76
2018-09-25T23:44:01.850Z,1.81
2018-09-25T23:49:05.093Z,1.78
2018-09-25T23:54:08.398Z,1.83
2018-09-25T23:59:11.641Z,1.84
